createdAt,value
2018-02-03T00:00:45.106Z,37.70
2018-02-03T00:03:13.583Z,37.60
2018-02-03T00:05:41.993Z,37.60
2018-02-03T00:08:09.758Z,37.50
2018-02-03T00:10:37.432Z,37.50
2018-02-03T00:13:05.081Z,37.50
2018-02-03T00:15:32.738Z,37.40
2018-02-03T00:18:00.379Z,37.40
2018-02-03T00:20:28.038Z,37.40
2018-02-03T00:22:56.442Z,37.40
2018-02-03T00:25:24.094Z,37.40
2018-02-03T00:27:51.834Z,37.40
2018-02-03T00:30:20.262Z,37.40
2018-02-03T00:32:47.899Z,37.40
2018-02-03T00:35:15.569Z,37.40
2018-02-03T00:37:43.252Z,37.30
2018-02-03T00:40:10.942Z,37.20
2018-02-03T00:42:39.450Z,37.00
2018-02-03T00:45:07.082Z,37.00
2018-02-03T00:47:35.474Z,37.00
2018-02-03T00:50:03.899Z,37.00
2018-02-03T00:52:31.556Z,37.00
2018-02-03T00:54:59.218Z,37.00
2018-02-03T00:57:26.856Z,37.10
2018-02-03T00:59:54.518Z,37.00
2018-02-03T01:02:22.180Z,37.10
2018-02-03T01:04:49.863Z,37.10
2018-02-03T01:07:17.506Z,37.20
2018-02-03T01:09:45.192Z,37.20
2018-02-03T01:12:13.856Z,37.20
2018-02-03T01:14:41.494Z,37.30
2018-02-03T01:17:09.187Z,37.30
2018-02-03T01:19:37.927Z,37.30
2018-02-03T01:22:06.455Z,37.50
2018-02-03T01:24:34.142Z,37.40
2018-02-03T01:27:01.847Z,37.40
2018-02-03T01:29:29.526Z,37.40
2018-02-03T01:31:57.181Z,37.40
2018-02-03T01:34:26.218Z,37.40
2018-02-03T01:36:53.880Z,37.40
2018-02-03T01:39:21.533Z,37.50
2018-02-03T01:41:49.280Z,37.50
2018-02-03T01:44:16.971Z,37.50
2018-02-03T01:46:44.610Z,37.50
2018-02-03T01:49:12.239Z,38.30
2018-02-03T01:51:39.949Z,37.60
2018-02-03T01:54:07.999Z,37.60
2018-02-03T01:56:35.950Z,37.60
2018-02-03T01:59:04.110Z,37.60
2018-02-03T02:01:31.897Z,37.60
2018-02-03T02:03:59.885Z,37.60
2018-02-03T02:06:27.575Z,37.60
2018-02-03T02:08:56.020Z,37.60
2018-02-03T02:11:23.683Z,37.60
2018-02-03T02:13:51.347Z,37.60
2018-02-03T02:16:19.030Z,37.60
2018-02-03T02:18:47.966Z,37.60
2018-02-03T02:21:16.578Z,37.60
2018-02-03T02:23:47.019Z,37.60
2018-02-03T02:26:14.715Z,37.70
2018-02-03T02:28:42.418Z,38.40
2018-02-03T02:31:10.091Z,37.90
2018-02-03T02:33:37.785Z,37.90
2018-02-03T02:36:05.483Z,38.00
2018-02-03T02:38:33.230Z,38.00
2018-02-03T02:41:00.916Z,38.00
2018-02-03T02:43:28.587Z,37.90
2018-02-03T02:45:56.243Z,37.80
2018-02-03T02:48:24.073Z,37.70
2018-02-03T02:50:51.845Z,37.70
2018-02-03T02:53:19.624Z,37.60
2018-02-03T02:55:47.303Z,37.50
2018-02-03T02:58:15.225Z,37.40
2018-02-03T03:00:43.094Z,37.40
2018-02-03T03:03:10.779Z,37.30
2018-02-03T03:05:38.513Z,37.30
2018-02-03T03:08:06.343Z,37.20
2018-02-03T03:10:34.774Z,37.20
2018-02-03T03:13:02.470Z,37.20
2018-02-03T03:15:30.182Z,37.10
2018-02-03T03:17:58.122Z,36.90
2018-02-03T03:20:26.635Z,36.90
2018-02-03T03:22:54.289Z,36.90
2018-02-03T03:25:21.927Z,36.90
2018-02-03T03:27:50.341Z,37.00
2018-02-03T03:30:19.815Z,36.90
2018-02-03T03:32:48.129Z,37.00
2018-02-03T03:35:15.781Z,36.90
2018-02-03T03:37:43.423Z,36.80
2018-02-03T03:40:11.093Z,36.70
2018-02-03T03:42:38.792Z,36.70
2018-02-03T03:45:06.435Z,36.60
2018-02-03T03:47:34.494Z,36.40
2018-02-03T03:50:02.186Z,36.30
2018-02-03T03:52:29.832Z,36.20
2018-02-03T03:54:58.695Z,36.20
2018-02-03T03:57:26.430Z,36.10
2018-02-03T03:59:54.951Z,36.10
2018-02-03T04:02:23.439Z,36.00
2018-02-03T04:04:51.140Z,36.10
2018-02-03T04:07:19.631Z,36.10
2018-02-03T04:09:48.078Z,36.00
2018-02-03T04:12:15.782Z,36.00
2018-02-03T04:14:44.759Z,35.90
2018-02-03T04:17:12.515Z,35.90
2018-02-03T04:19:40.225Z,36.00
2018-02-03T04:22:07.898Z,36.00
2018-02-03T04:24:35.955Z,36.10
2018-02-03T04:27:04.007Z,36.10
2018-02-03T04:29:31.821Z,36.10
2018-02-03T04:31:59.485Z,36.10
2018-02-03T04:34:27.224Z,36.10
2018-02-03T04:36:54.915Z,36.10
2018-02-03T04:39:23.378Z,36.20
2018-02-03T04:41:51.071Z,36.20
2018-02-03T04:44:18.778Z,36.20
2018-02-03T04:46:46.450Z,36.10
2018-02-03T04:49:14.281Z,36.10
2018-02-03T04:51:41.973Z,36.10
2018-02-03T04:54:09.616Z,35.90
2018-02-03T04:56:38.120Z,35.90
2018-02-03T04:59:07.102Z,35.90
2018-02-03T05:01:34.919Z,35.90
2018-02-03T05:04:03.343Z,36.10
2018-02-03T05:06:32.770Z,36.10
2018-02-03T05:09:00.494Z,36.10
2018-02-03T05:11:28.226Z,36.10
2018-02-03T05:13:55.935Z,36.10
2018-02-03T05:16:23.603Z,36.10
2018-02-03T05:18:51.294Z,36.20
2018-02-03T05:21:20.576Z,36.10
2018-02-03T05:23:48.281Z,36.00
2018-02-03T05:26:15.944Z,36.10
2018-02-03T05:28:43.635Z,36.10
2018-02-03T05:31:11.432Z,36.10
2018-02-03T05:33:39.145Z,36.20
2018-02-03T05:36:06.809Z,36.20
2018-02-03T05:41:08.375Z,36.10
2018-02-03T05:43:43.830Z,36.20
2018-02-03T05:46:11.944Z,36.30
2018-02-03T05:48:40.735Z,36.10
2018-02-03T05:51:09.226Z,36.10
2018-02-03T05:53:37.640Z,36.00
2018-02-03T05:56:05.319Z,36.00
2018-02-03T05:58:33.039Z,35.90
2018-02-03T06:01:01.097Z,36.00
2018-02-03T06:03:29.772Z,35.90
2018-02-03T06:05:58.245Z,35.80
2018-02-03T06:08:26.687Z,35.70
2018-02-03T06:10:54.518Z,35.60
2018-02-03T06:13:22.180Z,35.60
2018-02-03T06:15:50.267Z,35.50
2018-02-03T06:18:18.241Z,35.60
2018-02-03T06:20:47.085Z,35.60
2018-02-03T06:23:15.943Z,35.50
2018-02-03T06:25:43.639Z,35.50
2018-02-03T06:28:12.946Z,35.40
2018-02-03T06:30:40.583Z,35.40
2018-02-03T06:33:09.349Z,35.30
2018-02-03T06:35:37.015Z,35.30
2018-02-03T06:38:07.763Z,35.30
2018-02-03T06:40:36.755Z,35.20
2018-02-03T06:43:04.494Z,35.20
2018-02-03T06:45:32.202Z,35.10
2018-02-03T06:48:00.645Z,35.00
2018-02-03T06:50:28.270Z,34.90
2018-02-03T06:52:55.907Z,34.80
2018-02-03T06:55:23.543Z,34.70
2018-02-03T06:57:52.863Z,34.40
2018-02-03T07:00:20.550Z,34.40
2018-02-03T07:02:48.187Z,34.60
2018-02-03T07:05:16.235Z,34.70
2018-02-03T07:07:45.779Z,35.00
2018-02-03T07:10:13.763Z,35.00
2018-02-03T07:12:41.451Z,35.20
2018-02-03T07:15:09.197Z,35.30
2018-02-03T07:17:36.878Z,35.30
2018-02-03T07:20:04.618Z,35.30
2018-02-03T07:22:32.287Z,35.90
2018-02-03T07:25:00.019Z,35.40
2018-02-03T07:27:27.677Z,35.40
2018-02-03T07:29:55.386Z,35.60
2018-02-03T07:32:23.821Z,35.70
2018-02-03T07:34:51.992Z,35.70
2018-02-03T07:37:19.718Z,35.70
2018-02-03T07:39:49.060Z,35.90
2018-02-03T07:42:17.153Z,35.90
2018-02-03T07:44:45.545Z,36.00
2018-02-03T07:47:13.690Z,36.10
2018-02-03T07:49:41.350Z,36.10
2018-02-03T07:52:09.408Z,36.30
2018-02-03T07:54:37.082Z,36.20
2018-02-03T07:57:05.306Z,36.40
2018-02-03T07:59:32.974Z,36.40
2018-02-03T08:02:00.728Z,36.40
2018-02-03T08:04:29.193Z,36.30
2018-02-03T08:06:57.645Z,36.50
2018-02-03T08:09:25.289Z,36.20
2018-02-03T08:11:53.732Z,36.90
2018-02-03T08:14:21.407Z,36.20
2018-02-03T08:16:49.070Z,36.30
2018-02-03T08:19:16.806Z,36.50
2018-02-03T08:21:45.371Z,36.60
2018-02-03T08:24:13.817Z,36.50
2018-02-03T08:26:41.458Z,36.50
2018-02-03T08:29:09.133Z,36.50
2018-02-03T08:31:36.861Z,36.60
2018-02-03T08:34:07.306Z,36.60
2018-02-03T08:36:35.018Z,36.60
2018-02-03T08:39:04.985Z,36.60
2018-02-03T08:41:32.863Z,36.70
2018-02-03T08:44:01.655Z,36.90
2018-02-03T08:46:29.323Z,37.60
2018-02-03T08:48:57.749Z,37.00
2018-02-03T08:51:25.405Z,37.00
2018-02-03T08:53:54.293Z,37.00
2018-02-03T08:56:23.869Z,37.00
2018-02-03T08:58:51.526Z,36.90
2018-02-03T09:01:19.208Z,36.90
2018-02-03T09:03:49.057Z,36.90
2018-02-03T09:06:16.718Z,36.90
2018-02-03T09:08:44.349Z,36.80
2018-02-03T09:11:12.393Z,36.70
2018-02-03T09:13:41.454Z,37.40
2018-02-03T09:16:09.838Z,36.90
2018-02-03T09:18:37.499Z,37.00
2018-02-03T09:21:05.536Z,37.10
2018-02-03T09:23:33.232Z,37.00
2018-02-03T09:26:00.946Z,36.90
2018-02-03T09:28:28.613Z,37.00
2018-02-03T09:30:56.284Z,37.00
2018-02-03T09:33:23.980Z,36.80
2018-02-03T09:35:51.650Z,36.50
2018-02-03T09:38:19.562Z,36.40
2018-02-03T09:40:47.218Z,36.50
2018-02-03T09:43:16.039Z,36.30
2018-02-03T09:45:43.749Z,36.30
2018-02-03T09:48:11.499Z,35.80
2018-02-03T09:50:39.170Z,35.40
2018-02-03T09:53:07.027Z,35.10
2018-02-03T09:55:34.758Z,35.10
2018-02-03T09:58:02.549Z,35.30
2018-02-03T10:00:30.282Z,35.40
2018-02-03T10:02:58.308Z,35.30
2018-02-03T10:05:26.881Z,35.00
2018-02-03T10:07:55.634Z,35.10
2018-02-03T10:10:23.850Z,35.10
2018-02-03T10:12:52.257Z,35.00
2018-02-03T10:15:19.949Z,35.00
2018-02-03T10:17:47.618Z,34.70
2018-02-03T10:20:15.668Z,34.50
2018-02-03T10:22:44.110Z,34.50
2018-02-03T10:25:12.018Z,34.50
2018-02-03T10:27:39.679Z,34.50
2018-02-03T10:30:07.381Z,34.60
2018-02-03T10:32:35.382Z,34.50
2018-02-03T10:35:03.698Z,34.50
2018-02-03T10:37:31.386Z,34.60
2018-02-03T10:39:59.817Z,34.70
2018-02-03T10:42:27.579Z,34.70
2018-02-03T10:44:55.229Z,34.90
2018-02-03T10:47:23.389Z,35.10
2018-02-03T10:49:51.099Z,34.90
2018-02-03T10:52:18.802Z,34.90
2018-02-03T10:54:46.483Z,34.90
2018-02-03T10:57:14.238Z,34.80
2018-02-03T10:59:41.933Z,34.80
2018-02-03T11:02:09.594Z,34.90
2018-02-03T11:04:37.276Z,34.90
2018-02-03T11:07:05.035Z,34.80
2018-02-03T11:09:32.679Z,34.80
2018-02-03T11:12:00.350Z,34.90
2018-02-03T11:14:28.020Z,35.00
2018-02-03T11:16:56.285Z,34.90
2018-02-03T11:19:24.280Z,34.90
2018-02-03T11:21:52.750Z,35.00
2018-02-03T11:24:20.441Z,34.90
2018-02-03T11:26:48.122Z,34.90
2018-02-03T11:29:15.776Z,34.80
2018-02-03T11:31:43.490Z,34.80
2018-02-03T11:34:11.332Z,34.60
2018-02-03T11:36:39.097Z,34.50
2018-02-03T11:39:07.048Z,34.10
2018-02-03T11:41:34.734Z,33.30
2018-02-03T11:44:02.516Z,33.60
2018-02-03T11:46:31.024Z,34.30
2018-02-03T11:48:58.805Z,34.30
2018-02-03T11:51:27.685Z,34.30
2018-02-03T11:53:55.420Z,34.50
2018-02-03T11:56:23.894Z,34.30
2018-02-03T11:58:52.685Z,34.40
2018-02-03T12:01:21.159Z,34.40
2018-02-03T12:03:48.852Z,34.40
2018-02-03T12:06:16.644Z,34.40
2018-02-03T12:08:44.502Z,34.50
2018-02-03T12:11:12.287Z,34.70
2018-02-03T12:13:40.238Z,34.80
2018-02-03T12:16:07.941Z,34.80
2018-02-03T12:18:36.698Z,35.10
2018-02-03T12:21:06.290Z,35.10
2018-02-03T12:23:34.349Z,35.00
2018-02-03T12:26:02.446Z,34.80
2018-02-03T12:28:30.134Z,34.70
2018-02-03T12:30:58.632Z,34.40
2018-02-03T12:33:26.335Z,34.40
2018-02-03T12:35:54.111Z,34.20
2018-02-03T12:38:21.827Z,34.20
2018-02-03T12:40:49.530Z,34.30
2018-02-03T12:43:17.362Z,34.20
2018-02-03T12:45:45.107Z,34.10
2018-02-03T12:48:12.865Z,34.00
2018-02-03T12:50:40.640Z,34.10
2018-02-03T12:53:08.431Z,34.20
2018-02-03T12:55:36.163Z,34.30
2018-02-03T12:58:04.777Z,34.20
2018-02-03T13:00:32.738Z,33.90
2018-02-03T13:03:00.566Z,33.80
2018-02-03T13:05:28.238Z,33.60
2018-02-03T13:07:55.922Z,33.60
2018-02-03T13:10:24.090Z,33.60
2018-02-03T13:12:52.075Z,33.80
2018-02-03T13:15:19.833Z,33.90
2018-02-03T13:17:48.500Z,34.00
2018-02-03T13:20:16.313Z,34.00
2018-02-03T13:22:44.123Z,34.10
2018-02-03T13:25:11.883Z,34.00
2018-02-03T13:27:39.597Z,33.80
2018-02-03T13:30:07.333Z,33.70
2018-02-03T13:32:35.101Z,33.60
2018-02-03T13:35:02.821Z,33.60
2018-02-03T13:37:30.552Z,33.60
2018-02-03T13:39:58.304Z,33.70
2018-02-03T13:42:26.048Z,33.80
2018-02-03T13:44:53.778Z,34.00
2018-02-03T13:47:21.707Z,33.90
2018-02-03T13:49:50.468Z,33.90
2018-02-03T13:52:18.233Z,33.90
2018-02-03T13:54:45.986Z,33.80
2018-02-03T13:57:13.720Z,33.60
2018-02-03T13:59:41.457Z,33.40
2018-02-03T14:02:09.992Z,33.00
2018-02-03T14:04:37.859Z,33.00
2018-02-03T14:07:05.653Z,32.80
2018-02-03T14:09:33.431Z,32.60
2018-02-03T14:12:01.962Z,32.40
2018-02-03T14:14:29.737Z,32.40
2018-02-03T14:16:57.483Z,32.50
2018-02-03T14:19:25.383Z,32.60
2018-02-03T14:21:53.173Z,33.00
2018-02-03T14:24:27.409Z,33.10
2018-02-03T14:26:56.005Z,33.10
2018-02-03T14:29:23.926Z,33.00
2018-02-03T14:31:52.463Z,33.10
2018-02-03T14:34:20.195Z,33.10
2018-02-03T14:36:47.918Z,33.10
2018-02-03T14:39:15.711Z,33.10
2018-02-03T14:41:43.402Z,33.00
2018-02-03T14:44:11.141Z,32.90
2018-02-03T14:46:38.903Z,33.10
2018-02-03T14:49:06.840Z,33.00
2018-02-03T14:51:34.638Z,32.80
2018-02-03T14:54:02.573Z,32.80
2018-02-03T14:56:31.101Z,32.60
2018-02-03T14:58:58.803Z,32.50
2018-02-03T15:01:26.514Z,32.20
2018-02-03T15:03:54.321Z,32.00
2018-02-03T15:06:22.063Z,31.70
2018-02-03T15:08:49.799Z,31.60
2018-02-03T15:11:17.586Z,31.40
2018-02-03T15:13:45.383Z,31.30
2018-02-03T15:16:14.103Z,31.30
2018-02-03T15:18:41.838Z,31.30
2018-02-03T15:21:10.692Z,30.80
2018-02-03T15:23:38.457Z,30.80
2018-02-03T15:26:06.337Z,30.50
2018-02-03T15:28:34.861Z,30.30
2018-02-03T15:31:02.648Z,30.20
2018-02-03T15:33:30.432Z,30.40
2018-02-03T15:35:58.156Z,30.30
2018-02-03T15:38:26.002Z,30.80
2018-02-03T15:40:54.500Z,30.10
2018-02-03T15:43:22.256Z,30.10
2018-02-03T15:45:50.746Z,30.00
2018-02-03T15:48:18.787Z,30.00
2018-02-03T15:50:47.468Z,29.80
2018-02-03T15:53:15.187Z,29.80
2018-02-03T15:55:42.924Z,29.70
2018-02-03T15:58:10.662Z,29.70
2018-02-03T16:00:39.221Z,29.70
2018-02-03T16:03:07.027Z,29.70
2018-02-03T16:05:34.745Z,29.60
2018-02-03T16:08:02.438Z,29.70
2018-02-03T16:10:30.926Z,29.70
2018-02-03T16:12:58.640Z,29.70
2018-02-03T16:15:26.378Z,29.70
2018-02-03T16:17:54.365Z,29.80
2018-02-03T16:20:22.086Z,29.90
2018-02-03T16:22:49.806Z,29.90
2018-02-03T16:25:17.496Z,29.80
2018-02-03T16:27:46.039Z,29.70
2018-02-03T16:30:13.765Z,29.60
2018-02-03T16:32:41.506Z,29.70
2018-02-03T16:35:09.526Z,29.70
2018-02-03T16:37:37.257Z,29.90
2018-02-03T16:40:04.934Z,30.00
2018-02-03T16:45:07.178Z,30.10
2018-02-03T16:47:35.752Z,30.30
2018-02-03T16:50:04.250Z,30.40
2018-02-03T16:52:32.004Z,30.40
2018-02-03T16:54:59.773Z,30.50
2018-02-03T16:57:27.491Z,30.70
2018-02-03T16:59:55.268Z,30.80
2018-02-03T17:02:22.980Z,30.90
2018-02-03T17:04:50.754Z,31.00
2018-02-03T17:07:18.458Z,31.10
2018-02-03T17:09:46.176Z,31.20
2018-02-03T17:12:13.924Z,31.30
2018-02-03T17:14:41.669Z,31.40
2018-02-03T17:17:10.196Z,31.50
2018-02-03T17:19:37.940Z,31.40
2018-02-03T17:22:05.664Z,31.50
2018-02-03T17:24:34.156Z,31.50
2018-02-03T17:27:01.897Z,31.50
2018-02-03T17:29:30.458Z,31.40
2018-02-03T17:31:58.953Z,31.30
2018-02-03T17:34:26.662Z,31.30
2018-02-03T17:37:00.036Z,31.20
2018-02-03T17:39:27.840Z,31.20
2018-02-03T17:41:56.878Z,31.20
2018-02-03T17:44:25.418Z,31.20
2018-02-03T17:46:58.855Z,31.20
2018-02-03T17:49:27.352Z,31.20
2018-02-03T17:51:55.135Z,31.20
2018-02-03T17:54:22.903Z,31.30
2018-02-03T17:56:56.364Z,31.30
2018-02-03T17:59:24.904Z,31.30
2018-02-03T18:01:52.660Z,31.30
2018-02-03T18:04:20.371Z,31.40
2018-02-03T18:06:54.492Z,31.50
2018-02-03T18:09:22.237Z,31.50
2018-02-03T18:11:50.737Z,31.40
2018-02-03T18:14:18.445Z,31.40
2018-02-03T18:16:46.179Z,31.40
2018-02-03T18:19:13.918Z,31.50
2018-02-03T18:21:41.772Z,31.40
2018-02-03T18:24:10.251Z,31.50
2018-02-03T18:26:38.757Z,31.50
2018-02-03T18:29:06.487Z,31.50
2018-02-03T18:31:34.958Z,31.50
2018-02-03T18:34:02.693Z,31.50
2018-02-03T18:36:30.413Z,31.50
2018-02-03T18:38:58.936Z,31.70
2018-02-03T18:41:26.597Z,31.70
2018-02-03T18:43:54.345Z,31.80
2018-02-03T18:46:22.142Z,31.80
2018-02-03T18:48:49.895Z,31.90
2018-02-03T18:51:17.619Z,31.90
2018-02-03T18:53:45.317Z,31.90
2018-02-03T18:56:13.089Z,31.90
2018-02-03T18:58:41.686Z,31.90
2018-02-03T19:01:10.154Z,32.00
2018-02-03T19:03:37.866Z,32.00
2018-02-03T19:06:05.536Z,32.00
2018-02-03T19:08:33.318Z,32.00
2018-02-03T19:11:01.818Z,32.00
2018-02-03T19:13:29.548Z,31.90
2018-02-03T19:15:57.221Z,31.90
2018-02-03T19:18:24.890Z,31.90
2018-02-03T19:20:52.769Z,31.90
2018-02-03T19:23:20.448Z,31.80
2018-02-03T19:25:48.910Z,31.80
2018-02-03T19:28:16.607Z,31.70
2018-02-03T19:30:45.141Z,31.70
2018-02-03T19:33:12.836Z,31.70
2018-02-03T19:35:41.281Z,31.60
2018-02-03T19:38:09.011Z,31.60
2018-02-03T19:40:36.693Z,31.50
2018-02-03T19:43:04.355Z,31.50
2018-02-03T19:45:32.025Z,31.50
2018-02-03T19:47:59.765Z,31.50
2018-02-03T19:50:28.271Z,31.30
2018-02-03T19:52:55.922Z,31.30
2018-02-03T19:55:23.627Z,31.20
2018-02-03T19:57:52.109Z,31.20
2018-02-03T20:00:20.542Z,31.20
2018-02-03T20:02:48.303Z,31.10
2018-02-03T20:05:15.996Z,31.10
2018-02-03T20:07:43.686Z,31.10
2018-02-03T20:10:11.483Z,30.80
2018-02-03T20:12:39.159Z,31.20
2018-02-03T20:15:06.833Z,31.10
2018-02-03T20:17:34.558Z,31.10
2018-02-03T20:20:02.269Z,31.00
2018-02-03T20:22:29.963Z,30.90
2018-02-03T20:24:58.450Z,30.90
2018-02-03T20:27:26.141Z,30.90
2018-02-03T20:29:53.800Z,30.90
2018-02-03T20:32:21.524Z,30.90
2018-02-03T20:34:49.282Z,30.90
2018-02-03T20:37:17.034Z,30.80
2018-02-03T20:39:45.557Z,30.60
2018-02-03T20:42:13.342Z,30.60
2018-02-03T20:44:41.194Z,30.50
2018-02-03T20:47:09.038Z,30.50
2018-02-03T20:49:37.589Z,30.40
2018-02-03T20:52:06.099Z,30.40
2018-02-03T20:54:35.042Z,30.30
2018-02-03T20:57:02.936Z,30.30
2018-02-03T20:59:30.717Z,30.30
2018-02-03T21:01:59.016Z,30.20
2018-02-03T21:04:26.766Z,30.20
2018-02-03T21:06:54.644Z,30.10
2018-02-03T21:09:22.438Z,30.10
2018-02-03T21:11:50.987Z,30.00
2018-02-03T21:14:18.734Z,30.00
2018-02-03T21:16:46.500Z,29.90
2018-02-03T21:19:14.256Z,30.00
2018-02-03T21:21:41.977Z,30.00
2018-02-03T21:24:10.486Z,29.90
2018-02-03T21:26:38.236Z,29.90
2018-02-03T21:29:05.992Z,30.00
2018-02-03T21:31:34.517Z,30.00
2018-02-03T21:34:02.291Z,29.90
2018-02-03T21:36:29.998Z,30.00
2018-02-03T21:38:58.580Z,30.10
2018-02-03T21:41:27.044Z,30.10
2018-02-03T21:43:54.702Z,30.10
2018-02-03T21:46:22.387Z,30.20
2018-02-03T21:48:50.841Z,30.20
2018-02-03T21:51:18.498Z,30.20
2018-02-03T21:53:46.144Z,30.20
2018-02-03T21:56:13.770Z,30.20
2018-02-03T21:58:41.432Z,30.10
2018-02-03T22:01:09.128Z,30.20
2018-02-03T22:06:28.928Z,30.10
2018-02-03T22:08:58.401Z,30.10
2018-02-03T22:11:27.889Z,30.10
2018-02-03T22:13:57.437Z,30.10
2018-02-03T22:16:27.321Z,30.00
2018-02-03T22:18:56.147Z,30.00
2018-02-03T22:21:25.128Z,30.00
2018-02-03T22:23:54.960Z,30.00
2018-02-03T22:26:23.642Z,29.90
2018-02-03T22:28:53.336Z,29.90
2018-02-03T22:31:23.041Z,29.90
2018-02-03T22:33:51.874Z,29.90
2018-02-03T22:36:21.385Z,29.80
2018-02-03T22:38:50.936Z,29.80
2018-02-03T22:41:19.531Z,29.70
2018-02-03T22:43:48.922Z,29.70
2018-02-03T22:46:18.323Z,29.70
2018-02-03T22:48:47.771Z,29.70
2018-02-03T22:51:16.265Z,29.70
2018-02-03T22:53:46.119Z,29.70
2018-02-03T22:56:14.810Z,29.70
2018-02-03T22:58:43.572Z,29.70
2018-02-03T23:01:17.863Z,30.00
2018-02-03T23:03:46.689Z,29.60
2018-02-03T23:06:15.178Z,29.60
2018-02-03T23:08:43.895Z,29.50
2018-02-03T23:11:13.200Z,29.30
2018-02-03T23:13:42.691Z,29.30
2018-02-03T23:16:12.202Z,29.10
2018-02-03T23:18:40.794Z,29.10
2018-02-03T23:21:09.427Z,28.90
2018-02-03T23:23:37.975Z,28.80
2018-02-03T23:26:07.461Z,28.80
2018-02-03T23:28:36.916Z,28.70
2018-02-03T23:31:06.142Z,28.60
2018-02-03T23:33:34.595Z,28.60
2018-02-03T23:36:02.984Z,28.50
2018-02-03T23:38:31.306Z,28.50
2018-02-03T23:40:59.595Z,28.50
2018-02-03T23:43:27.953Z,28.40
2018-02-03T23:45:56.280Z,28.40
2018-02-03T23:48:24.559Z,28.30
2018-02-03T23:50:52.556Z,28.20
2018-02-03T23:53:20.645Z,28.20
2018-02-03T23:55:48.568Z,28.20
2018-02-03T23:58:16.473Z,28.20
